Terminal Aerodrome Forecast
Issued by NWS Houston/Galveston TX

Current Version | Previous Version | Text Only | Print | Product List | Glossary Off
Versions: 1 2 3 4 5 6 7 8 9 10 11 12 13 14 15 16 17 18 19 20 21 22 23 24 25 26 27

000
FTUS44 KHGX 231456 AAA
TAFHOU
TAF AMD
KHOU 231456Z 2315/2412 17006KT P6SM SKC
     FM231800 17010KT P6SM SCT250
     FM240200 17007KT P6SM SCT007
     FM240900 18004KT 4SM BR BKN007
      TEMPO 2410/2412 2SM BR OVC005=

USA.gov is the U.S. government's official web portal to all federal, state and local government web resources and services.